This is the latest recevied weather packets stored in our database for station/object VA2DG-13. If no packets are shown the sender has not sent any weather packets the latest 10 day(s).
| Time | Temp. | Humidity | Pressure | Rain* | Wind** | Luminosity | Snow |
|---|---|---|---|---|---|---|---|
| 1777407007 | 22.78° C | 25% | 1012.5 hPa | 0 mm | - | - | - |
| 1777406107 | 22.78° C | 27% | 1012.8 hPa | 0 mm | - | - | - |
| 1777404608 | 22.78° C | 27% | 1013.2 hPa | 0 mm | - | - | - |
| 1777404008 | 22.78° C | 27% | 1013.5 hPa | 0 mm | - | - | - |
| 1777401907 | 22.78° C | 27% | 1013.9 hPa | 0 mm | - | - | - |
| 1777400707 | 22.78° C | 27% | 1014 hPa | 0 mm | - | - | - |
| 1777398008 | 22.22° C | 27% | 1014.4 hPa | 0 mm | - | - | - |
| 1777397408 | 22.22° C | 27% | 1014.3 hPa | 0 mm | - | - | - |
| 1777396507 | 22.22° C | 27% | 1014.4 hPa | 0 mm | - | - | - |
| 1777396207 | 22.22° C | 27% | 1014.5 hPa | 0 mm | - | - | - |
| 1777395907 | 21.67° C | 27% | 1014.5 hPa | 0 mm | - | - | - |
| 1777395607 | 21.67° C | 27% | 1014.6 hPa | 0 mm | - | - | - |
| 1777394108 | 21.67° C | 27% | 1015 hPa | 0 mm | - | - | - |
| 1777392307 | 20.56° C | 27% | 1015.5 hPa | 0 mm | - | - | - |
| 1777391107 | 21.11° C | 27% | 1015.6 hPa | 0 mm | - | - | - |
| 1777390808 | 21.11° C | 28% | 1015.8 hPa | 0 mm | - | - | - |
| 1777390208 | 21.11° C | 27% | 1015.8 hPa | 0 mm | - | - | - |
| 1777389907 | 21.11° C | 28% | 1015.8 hPa | 0 mm | - | - | - |
| 1777389607 | 20.56° C | 29% | 1015.9 hPa | 0 mm | - | - | - |
| 1777386307 | 19.44° C | 33% | 1016.2 hPa | 0 mm | - | - | - |
| 1777384807 | 18.89° C | 35% | 1016.6 hPa | 0 mm | - | - | - |
| 1777381808 | 17.22° C | 39% | 1016.4 hPa | 0 mm | - | - | - |
| 1777379707 | 16.11° C | 42% | 1016.8 hPa | 0 mm | - | - | - |
| 1777371007 | 11.11° C | 61% | 1017.2 hPa | 0 mm | - | - | - |
| 1777367707 | 10.56° C | 66% | 1016.9 hPa | 0 mm | - | - | - |
* Rain latest hour (hover to see other rain measurements)
** Current wind speed in m/s (hover to see current wind gust speed)